sensor_id;sensor_type;location;lat;lon;timestamp;P1;durP1;ratioP1;P2;durP2;ratioP2
57989;SDS011;58373;51.824;5.564;2022-08-03T00:01:17;13.07;;;4.20;;
57989;SDS011;58373;51.824;5.564;2022-08-03T00:03:42;10.13;;;3.97;;
57989;SDS011;58373;51.824;5.564;2022-08-03T00:06:08;11.32;;;4.32;;
57989;SDS011;58373;51.824;5.564;2022-08-03T00:08:33;10.45;;;4.25;;
57989;SDS011;58373;51.824;5.564;2022-08-03T00:10:59;11.45;;;4.20;;
57989;SDS011;58373;51.824;5.564;2022-08-03T00:13:24;10.60;;;4.45;;
57989;SDS011;58373;51.824;5.564;2022-08-03T00:15:50;12.30;;;4.40;;
57989;SDS011;58373;51.824;5.564;2022-08-03T00:18:15;12.35;;;4.20;;
57989;SDS011;58373;51.824;5.564;2022-08-03T00:20:41;11.15;;;4.18;;
57989;SDS011;58373;51.824;5.564;2022-08-03T00:23:07;13.32;;;4.38;;
57989;SDS011;58373;51.824;5.564;2022-08-03T00:25:33;8.85;;;4.25;;
57989;SDS011;58373;51.824;5.564;2022-08-03T00:28:00;12.23;;;4.33;;
57989;SDS011;58373;51.824;5.564;2022-08-03T00:30:25;9.18;;;3.88;;
57989;SDS011;58373;51.824;5.564;2022-08-03T00:32:51;10.23;;;4.03;;
57989;SDS011;58373;51.824;5.564;2022-08-03T00:35:16;10.57;;;4.18;;
57989;SDS011;58373;51.824;5.564;2022-08-03T00:37:42;11.10;;;4.20;;
57989;SDS011;58373;51.824;5.564;2022-08-03T00:40:11;8.82;;;3.90;;
57989;SDS011;58373;51.824;5.564;2022-08-03T00:42:51;10.27;;;4.18;;
57989;SDS011;58373;51.824;5.564;2022-08-03T00:45:17;12.00;;;4.43;;
57989;SDS011;58373;51.824;5.564;2022-08-03T00:47:44;10.65;;;4.53;;
57989;SDS011;58373;51.824;5.564;2022-08-03T00:50:09;9.95;;;4.13;;
57989;SDS011;58373;51.824;5.564;2022-08-03T00:52:35;10.02;;;4.10;;
57989;SDS011;58373;51.824;5.564;2022-08-03T00:55:01;8.57;;;4.28;;
57989;SDS011;58373;51.824;5.564;2022-08-03T00:57:28;10.87;;;4.13;;
57989;SDS011;58373;51.824;5.564;2022-08-03T00:59:54;11.13;;;4.32;;
57989;SDS011;58373;51.824;5.564;2022-08-03T01:02:20;11.52;;;4.50;;
57989;SDS011;58373;51.824;5.564;2022-08-03T01:04:45;10.65;;;4.20;;
57989;SDS011;58373;51.824;5.564;2022-08-03T01:07:16;11.52;;;4.80;;
57989;SDS011;58373;51.824;5.564;2022-08-03T01:15:34;13.45;;;4.68;;
57989;SDS011;58373;51.824;5.564;2022-08-03T01:18:23;11.77;;;4.78;;
57989;SDS011;58373;51.824;5.564;2022-08-03T01:21:11;9.95;;;4.72;;
57989;SDS011;58373;51.824;5.564;2022-08-03T01:26:47;9.90;;;4.72;;
57989;SDS011;58373;51.824;5.564;2022-08-03T01:29:38;11.27;;;5.00;;
57989;SDS011;58373;51.824;5.564;2022-08-03T01:32:19;10.38;;;4.93;;
57989;SDS011;58373;51.824;5.564;2022-08-03T01:35:00;9.85;;;4.50;;
57989;SDS011;58373;51.824;5.564;2022-08-03T01:37:31;12.07;;;4.95;;
57989;SDS011;58373;51.824;5.564;2022-08-03T01:40:02;10.95;;;5.35;;
57989;SDS011;58373;51.824;5.564;2022-08-03T01:42:30;10.52;;;4.93;;
57989;SDS011;58373;51.824;5.564;2022-08-03T01:44:57;10.73;;;4.88;;
57989;SDS011;58373;51.824;5.564;2022-08-03T01:47:24;8.82;;;4.95;;
57989;SDS011;58373;51.824;5.564;2022-08-03T01:49:52;13.25;;;5.60;;
57989;SDS011;58373;51.824;5.564;2022-08-03T01:52:20;11.75;;;5.03;;
57989;SDS011;58373;51.824;5.564;2022-08-03T01:54:47;11.90;;;5.03;;
57989;SDS011;58373;51.824;5.564;2022-08-03T01:59:41;13.52;;;5.38;;
57989;SDS011;58373;51.824;5.564;2022-08-03T02:02:09;13.38;;;6.20;;
57989;SDS011;58373;51.824;5.564;2022-08-03T02:04:37;14.10;;;5.93;;
57989;SDS011;58373;51.824;5.564;2022-08-03T02:07:05;15.30;;;6.40;;
57989;SDS011;58373;51.824;5.564;2022-08-03T02:09:32;10.30;;;5.57;;
57989;SDS011;58373;51.824;5.564;2022-08-03T02:12:01;12.10;;;5.72;;
57989;SDS011;58373;51.824;5.564;2022-08-03T02:14:26;11.23;;;5.78;;
57989;SDS011;58373;51.824;5.564;2022-08-03T02:16:53;12.38;;;5.72;;
57989;SDS011;58373;51.824;5.564;2022-08-03T02:19:19;12.65;;;5.68;;
57989;SDS011;58373;51.824;5.564;2022-08-03T02:21:46;11.88;;;5.38;;
57989;SDS011;58373;51.824;5.564;2022-08-03T02:24:15;12.30;;;5.85;;
57989;SDS011;58373;51.824;5.564;2022-08-03T02:26:40;13.65;;;6.10;;
57989;SDS011;58373;51.824;5.564;2022-08-03T02:29:12;10.68;;;5.80;;
57989;SDS011;58373;51.824;5.564;2022-08-03T02:31:42;12.48;;;6.00;;
57989;SDS011;58373;51.824;5.564;2022-08-03T02:34:11;11.55;;;5.90;;
57989;SDS011;58373;51.824;5.564;2022-08-03T02:36:38;9.88;;;6.07;;
57989;SDS011;58373;51.824;5.564;2022-08-03T02:39:06;13.75;;;6.28;;
57989;SDS011;58373;51.824;5.564;2022-08-03T02:41:36;13.85;;;5.88;;
57989;SDS011;58373;51.824;5.564;2022-08-03T02:44:11;14.07;;;6.97;;
57989;SDS011;58373;51.824;5.564;2022-08-03T02:46:38;14.05;;;6.63;;
57989;SDS011;58373;51.824;5.564;2022-08-03T02:49:07;13.93;;;6.03;;
57989;SDS011;58373;51.824;5.564;2022-08-03T02:51:35;11.98;;;6.30;;
57989;SDS011;58373;51.824;5.564;2022-08-03T02:54:03;11.75;;;5.82;;
57989;SDS011;58373;51.824;5.564;2022-08-03T02:56:30;14.18;;;6.43;;
57989;SDS011;58373;51.824;5.564;2022-08-03T02:58:57;11.57;;;6.27;;
57989;SDS011;58373;51.824;5.564;2022-08-03T03:01:25;15.32;;;6.55;;
57989;SDS011;58373;51.824;5.564;2022-08-03T03:06:19;13.00;;;6.47;;
57989;SDS011;58373;51.824;5.564;2022-08-03T03:08:45;13.40;;;6.78;;
57989;SDS011;58373;51.824;5.564;2022-08-03T03:11:12;12.38;;;6.57;;
57989;SDS011;58373;51.824;5.564;2022-08-03T03:13:38;12.80;;;6.47;;
57989;SDS011;58373;51.824;5.564;2022-08-03T03:16:09;13.95;;;6.80;;
57989;SDS011;58373;51.824;5.564;2022-08-03T03:18:37;13.23;;;6.85;;
57989;SDS011;58373;51.824;5.564;2022-08-03T03:21:04;14.60;;;6.72;;
57989;SDS011;58373;51.824;5.564;2022-08-03T03:23:35;11.13;;;6.65;;
57989;SDS011;58373;51.824;5.564;2022-08-03T03:26:02;13.85;;;6.57;;
57989;SDS011;58373;51.824;5.564;2022-08-03T03:28:29;15.75;;;6.72;;
57989;SDS011;58373;51.824;5.564;2022-08-03T03:30:55;13.25;;;6.55;;
57989;SDS011;58373;51.824;5.564;2022-08-03T03:33:21;11.32;;;6.32;;
57989;SDS011;58373;51.824;5.564;2022-08-03T03:35:47;11.90;;;6.43;;
57989;SDS011;58373;51.824;5.564;2022-08-03T03:38:13;11.60;;;6.40;;
57989;SDS011;58373;51.824;5.564;2022-08-03T03:40:38;11.93;;;6.28;;
57989;SDS011;58373;51.824;5.564;2022-08-03T03:43:08;13.05;;;6.30;;
57989;SDS011;58373;51.824;5.564;2022-08-03T03:45:34;13.55;;;6.72;;
57989;SDS011;58373;51.824;5.564;2022-08-03T03:48:01;14.07;;;6.78;;
57989;SDS011;58373;51.824;5.564;2022-08-03T03:50:28;12.65;;;6.57;;
57989;SDS011;58373;51.824;5.564;2022-08-03T03:52:55;13.13;;;6.70;;
57989;SDS011;58373;51.824;5.564;2022-08-03T03:55:20;10.95;;;6.45;;
57989;SDS011;58373;51.824;5.564;2022-08-03T03:57:46;13.85;;;7.22;;
57989;SDS011;58373;51.824;5.564;2022-08-03T04:00:12;15.18;;;6.45;;
57989;SDS011;58373;51.824;5.564;2022-08-03T04:02:40;13.38;;;6.57;;
57989;SDS011;58373;51.824;5.564;2022-08-03T04:05:06;13.27;;;6.90;;
57989;SDS011;58373;51.824;5.564;2022-08-03T04:10:42;14.82;;;6.75;;
57989;SDS011;58373;51.824;5.564;2022-08-03T04:13:28;12.27;;;6.22;;
57989;SDS011;58373;51.824;5.564;2022-08-03T04:15:58;12.73;;;6.60;;
57989;SDS011;58373;51.824;5.564;2022-08-03T04:18:25;14.13;;;6.80;;
57989;SDS011;58373;51.824;5.564;2022-08-03T04:20:54;11.88;;;5.93;;
57989;SDS011;58373;51.824;5.564;2022-08-03T04:23:23;11.95;;;6.03;;
57989;SDS011;58373;51.824;5.564;2022-08-03T04:25:51;13.32;;;5.88;;
57989;SDS011;58373;51.824;5.564;2022-08-03T04:28:20;11.63;;;5.50;;
57989;SDS011;58373;51.824;5.564;2022-08-03T04:30:47;11.93;;;5.97;;
57989;SDS011;58373;51.824;5.564;2022-08-03T04:33:15;13.80;;;5.50;;
57989;SDS011;58373;51.824;5.564;2022-08-03T04:35:42;11.80;;;5.35;;
57989;SDS011;58373;51.824;5.564;2022-08-03T04:38:11;12.07;;;5.55;;
57989;SDS011;58373;51.824;5.564;2022-08-03T04:40:39;12.30;;;5.88;;
57989;SDS011;58373;51.824;5.564;2022-08-03T04:43:06;13.48;;;6.03;;
57989;SDS011;58373;51.824;5.564;2022-08-03T04:45:33;12.57;;;5.53;;
57989;SDS011;58373;51.824;5.564;2022-08-03T04:48:00;12.98;;;5.70;;
57989;SDS011;58373;51.824;5.564;2022-08-03T04:50:26;14.25;;;5.70;;
57989;SDS011;58373;51.824;5.564;2022-08-03T04:52:52;12.30;;;6.05;;
57989;SDS011;58373;51.824;5.564;2022-08-03T04:55:51;14.65;;;5.72;;
57989;SDS011;58373;51.824;5.564;2022-08-03T04:58:09;10.20;;;5.38;;
57989;SDS011;58373;51.824;5.564;2022-08-03T05:00:34;11.38;;;5.30;;
57989;SDS011;58373;51.824;5.564;2022-08-03T05:03:00;13.63;;;5.47;;
57989;SDS011;58373;51.824;5.564;2022-08-03T05:05:25;11.88;;;5.97;;
57989;SDS011;58373;51.824;5.564;2022-08-03T05:07:51;11.70;;;5.15;;
57989;SDS011;58373;51.824;5.564;2022-08-03T05:10:16;11.20;;;5.20;;
57989;SDS011;58373;51.824;5.564;2022-08-03T05:12:43;9.80;;;5.32;;
57989;SDS011;58373;51.824;5.564;2022-08-03T05:15:12;12.32;;;5.63;;
57989;SDS011;58373;51.824;5.564;2022-08-03T05:17:37;10.35;;;5.32;;
57989;SDS011;58373;51.824;5.564;2022-08-03T05:20:03;10.77;;;4.80;;
57989;SDS011;58373;51.824;5.564;2022-08-03T05:22:29;14.32;;;5.60;;
57989;SDS011;58373;51.824;5.564;2022-08-03T05:24:54;12.63;;;5.50;;
57989;SDS011;58373;51.824;5.564;2022-08-03T05:27:20;12.55;;;5.60;;
57989;SDS011;58373;51.824;5.564;2022-08-03T05:29:45;12.10;;;5.70;;
57989;SDS011;58373;51.824;5.564;2022-08-03T05:32:12;12.48;;;5.93;;
57989;SDS011;58373;51.824;5.564;2022-08-03T05:34:37;12.43;;;5.88;;
57989;SDS011;58373;51.824;5.564;2022-08-03T05:37:03;11.88;;;6.38;;
57989;SDS011;58373;51.824;5.564;2022-08-03T05:39:28;10.65;;;5.95;;
57989;SDS011;58373;51.824;5.564;2022-08-03T05:41:53;12.70;;;5.95;;
57989;SDS011;58373;51.824;5.564;2022-08-03T05:44:19;12.65;;;6.20;;
57989;SDS011;58373;51.824;5.564;2022-08-03T05:46:44;12.02;;;6.15;;
57989;SDS011;58373;51.824;5.564;2022-08-03T05:49:09;16.33;;;6.03;;
57989;SDS011;58373;51.824;5.564;2022-08-03T05:51:35;13.93;;;6.68;;
57989;SDS011;58373;51.824;5.564;2022-08-03T05:54:01;12.25;;;6.50;;
57989;SDS011;58373;51.824;5.564;2022-08-03T05:56:26;13.73;;;6.65;;
57989;SDS011;58373;51.824;5.564;2022-08-03T05:58:52;14.70;;;5.85;;
57989;SDS011;58373;51.824;5.564;2022-08-03T06:01:17;14.45;;;6.82;;
57989;SDS011;58373;51.824;5.564;2022-08-03T06:03:45;11.65;;;6.18;;
57989;SDS011;58373;51.824;5.564;2022-08-03T06:06:11;13.98;;;6.45;;
57989;SDS011;58373;51.824;5.564;2022-08-03T06:08:37;11.40;;;5.80;;
57989;SDS011;58373;51.824;5.564;2022-08-03T06:11:03;13.15;;;5.70;;
57989;SDS011;58373;51.824;5.564;2022-08-03T06:13:28;12.60;;;5.53;;
57989;SDS011;58373;51.824;5.564;2022-08-03T06:15:54;12.05;;;5.53;;
57989;SDS011;58373;51.824;5.564;2022-08-03T06:18:19;13.35;;;5.90;;
57989;SDS011;58373;51.824;5.564;2022-08-03T06:20:45;12.85;;;5.60;;
57989;SDS011;58373;51.824;5.564;2022-08-03T06:23:10;12.93;;;5.35;;
57989;SDS011;58373;51.824;5.564;2022-08-03T06:25:36;13.85;;;5.00;;
57989;SDS011;58373;51.824;5.564;2022-08-03T06:28:01;12.88;;;4.68;;
57989;SDS011;58373;51.824;5.564;2022-08-03T06:30:27;9.65;;;4.60;;
57989;SDS011;58373;51.824;5.564;2022-08-03T06:32:53;13.25;;;4.80;;
57989;SDS011;58373;51.824;5.564;2022-08-03T06:35:18;14.73;;;4.60;;
57989;SDS011;58373;51.824;5.564;2022-08-03T06:37:45;12.60;;;4.35;;
57989;SDS011;58373;51.824;5.564;2022-08-03T06:40:12;12.30;;;4.45;;
57989;SDS011;58373;51.824;5.564;2022-08-03T06:42:40;12.63;;;4.07;;
57989;SDS011;58373;51.824;5.564;2022-08-03T06:45:06;13.10;;;4.70;;
57989;SDS011;58373;51.824;5.564;2022-08-03T06:47:33;15.30;;;4.32;;
57989;SDS011;58373;51.824;5.564;2022-08-03T06:49:59;15.48;;;4.95;;
57989;SDS011;58373;51.824;5.564;2022-08-03T06:52:24;15.63;;;4.13;;
57989;SDS011;58373;51.824;5.564;2022-08-03T06:54:50;11.75;;;3.92;;
57989;SDS011;58373;51.824;5.564;2022-08-03T06:57:15;11.63;;;3.90;;
57989;SDS011;58373;51.824;5.564;2022-08-03T06:59:42;14.80;;;4.75;;
57989;SDS011;58373;51.824;5.564;2022-08-03T07:02:08;15.52;;;4.53;;
57989;SDS011;58373;51.824;5.564;2022-08-03T07:04:34;11.43;;;3.80;;
57989;SDS011;58373;51.824;5.564;2022-08-03T07:06:59;11.88;;;4.13;;
57989;SDS011;58373;51.824;5.564;2022-08-03T07:09:25;14.55;;;4.45;;
57989;SDS011;58373;51.824;5.564;2022-08-03T07:11:51;14.30;;;4.55;;
57989;SDS011;58373;51.824;5.564;2022-08-03T07:14:16;14.25;;;4.45;;
57989;SDS011;58373;51.824;5.564;2022-08-03T07:16:42;11.68;;;4.10;;
57989;SDS011;58373;51.824;5.564;2022-08-03T07:19:07;16.35;;;4.55;;
57989;SDS011;58373;51.824;5.564;2022-08-03T07:21:32;13.40;;;4.80;;
57989;SDS011;58373;51.824;5.564;2022-08-03T07:23:58;15.07;;;4.55;;
57989;SDS011;58373;51.824;5.564;2022-08-03T07:26:23;12.13;;;4.20;;
57989;SDS011;58373;51.824;5.564;2022-08-03T07:28:48;12.30;;;4.30;;
57989;SDS011;58373;51.824;5.564;2022-08-03T07:31:14;13.60;;;4.15;;
57989;SDS011;58373;51.824;5.564;2022-08-03T07:33:39;14.98;;;4.32;;
57989;SDS011;58373;51.824;5.564;2022-08-03T07:36:04;15.02;;;4.60;;
57989;SDS011;58373;51.824;5.564;2022-08-03T07:38:30;12.27;;;4.13;;
57989;SDS011;58373;51.824;5.564;2022-08-03T07:40:55;15.55;;;4.15;;
57989;SDS011;58373;51.824;5.564;2022-08-03T07:43:20;14.35;;;4.10;;
57989;SDS011;58373;51.824;5.564;2022-08-03T07:45:46;14.02;;;4.32;;
57989;SDS011;58373;51.824;5.564;2022-08-03T07:48:12;13.57;;;4.00;;
57989;SDS011;58373;51.824;5.564;2022-08-03T07:50:37;13.63;;;3.92;;
57989;SDS011;58373;51.824;5.564;2022-08-03T07:53:02;13.85;;;4.13;;
57989;SDS011;58373;51.824;5.564;2022-08-03T07:55:28;13.65;;;3.72;;
57989;SDS011;58373;51.824;5.564;2022-08-03T07:58:01;13.48;;;4.20;;
57989;SDS011;58373;51.824;5.564;2022-08-03T08:00:30;14.77;;;4.05;;
57989;SDS011;58373;51.824;5.564;2022-08-03T08:02:56;13.93;;;3.30;;
57989;SDS011;58373;51.824;5.564;2022-08-03T08:05:21;12.63;;;3.80;;
57989;SDS011;58373;51.824;5.564;2022-08-03T08:07:47;12.10;;;3.30;;
57989;SDS011;58373;51.824;5.564;2022-08-03T08:10:13;10.93;;;3.65;;
57989;SDS011;58373;51.824;5.564;2022-08-03T08:12:38;12.65;;;3.80;;
57989;SDS011;58373;51.824;5.564;2022-08-03T08:15:04;16.42;;;3.95;;
57989;SDS011;58373;51.824;5.564;2022-08-03T08:17:30;13.45;;;4.43;;
57989;SDS011;58373;51.824;5.564;2022-08-03T08:20:05;12.75;;;3.85;;
57989;SDS011;58373;51.824;5.564;2022-08-03T08:22:31;14.23;;;3.97;;
57989;SDS011;58373;51.824;5.564;2022-08-03T08:24:59;10.95;;;3.47;;
57989;SDS011;58373;51.824;5.564;2022-08-03T08:27:25;14.15;;;3.55;;
57989;SDS011;58373;51.824;5.564;2022-08-03T08:29:50;12.15;;;3.25;;
57989;SDS011;58373;51.824;5.564;2022-08-03T08:32:15;14.75;;;4.07;;
57989;SDS011;58373;51.824;5.564;2022-08-03T08:34:41;16.67;;;3.63;;
57989;SDS011;58373;51.824;5.564;2022-08-03T08:37:06;13.73;;;3.60;;
57989;SDS011;58373;51.824;5.564;2022-08-03T08:39:31;14.80;;;3.15;;
57989;SDS011;58373;51.824;5.564;2022-08-03T08:41:57;14.07;;;3.38;;
57989;SDS011;58373;51.824;5.564;2022-08-03T08:44:22;21.98;;;4.28;;
57989;SDS011;58373;51.824;5.564;2022-08-03T08:46:47;17.90;;;3.75;;
57989;SDS011;58373;51.824;5.564;2022-08-03T08:49:17;15.15;;;3.40;;
57989;SDS011;58373;51.824;5.564;2022-08-03T08:51:46;12.93;;;3.38;;
57989;SDS011;58373;51.824;5.564;2022-08-03T08:56:42;17.20;;;4.25;;
57989;SDS011;58373;51.824;5.564;2022-08-03T08:59:08;16.70;;;3.30;;
57989;SDS011;58373;51.824;5.564;2022-08-03T09:01:34;11.55;;;3.00;;
57989;SDS011;58373;51.824;5.564;2022-08-03T09:03:59;16.17;;;3.35;;
57989;SDS011;58373;51.824;5.564;2022-08-03T09:06:25;12.13;;;3.13;;
57989;SDS011;58373;51.824;5.564;2022-08-03T09:08:50;16.35;;;2.95;;
57989;SDS011;58373;51.824;5.564;2022-08-03T09:11:19;17.17;;;3.50;;
57989;SDS011;58373;51.824;5.564;2022-08-03T09:13:46;12.90;;;3.25;;
57989;SDS011;58373;51.824;5.564;2022-08-03T09:16:12;13.57;;;3.00;;
57989;SDS011;58373;51.824;5.564;2022-08-03T09:18:42;14.10;;;3.20;;
57989;SDS011;58373;51.824;5.564;2022-08-03T09:23:49;13.80;;;2.85;;
57989;SDS011;58373;51.824;5.564;2022-08-03T09:26:23;12.63;;;3.03;;
57989;SDS011;58373;51.824;5.564;2022-08-03T09:29:01;16.13;;;3.33;;
57989;SDS011;58373;51.824;5.564;2022-08-03T09:31:31;12.05;;;3.17;;
57989;SDS011;58373;51.824;5.564;2022-08-03T09:33:59;11.23;;;2.80;;
57989;SDS011;58373;51.824;5.564;2022-08-03T09:36:36;16.67;;;3.50;;
57989;SDS011;58373;51.824;5.564;2022-08-03T09:39:07;13.20;;;3.25;;
57989;SDS011;58373;51.824;5.564;2022-08-03T09:41:38;15.98;;;3.45;;
57989;SDS011;58373;51.824;5.564;2022-08-03T09:44:05;12.00;;;3.20;;
57989;SDS011;58373;51.824;5.564;2022-08-03T09:46:31;18.05;;;3.30;;
57989;SDS011;58373;51.824;5.564;2022-08-03T09:49:18;11.07;;;2.90;;
57989;SDS011;58373;51.824;5.564;2022-08-03T09:51:43;16.58;;;3.20;;
57989;SDS011;58373;51.824;5.564;2022-08-03T09:54:09;15.77;;;3.17;;
57989;SDS011;58373;51.824;5.564;2022-08-03T09:56:42;12.82;;;2.97;;
57989;SDS011;58373;51.824;5.564;2022-08-03T09:59:09;13.10;;;2.88;;
57989;SDS011;58373;51.824;5.564;2022-08-03T10:01:36;13.65;;;3.38;;
57989;SDS011;58373;51.824;5.564;2022-08-03T10:04:05;14.60;;;3.50;;
57989;SDS011;58373;51.824;5.564;2022-08-03T10:06:36;15.93;;;3.38;;
57989;SDS011;58373;51.824;5.564;2022-08-03T10:11:31;12.77;;;2.80;;
57989;SDS011;58373;51.824;5.564;2022-08-03T10:13:56;17.13;;;3.05;;
57989;SDS011;58373;51.824;5.564;2022-08-03T10:16:22;12.65;;;2.80;;
57989;SDS011;58373;51.824;5.564;2022-08-03T10:18:47;13.10;;;3.28;;
57989;SDS011;58373;51.824;5.564;2022-08-03T10:21:14;15.73;;;3.08;;
57989;SDS011;58373;51.824;5.564;2022-08-03T10:23:43;11.32;;;2.75;;
57989;SDS011;58373;51.824;5.564;2022-08-03T10:26:11;10.60;;;2.93;;
57989;SDS011;58373;51.824;5.564;2022-08-03T10:28:41;12.85;;;2.88;;
57989;SDS011;58373;51.824;5.564;2022-08-03T10:31:12;9.80;;;2.65;;
57989;SDS011;58373;51.824;5.564;2022-08-03T10:33:41;10.90;;;2.63;;
57989;SDS011;58373;51.824;5.564;2022-08-03T10:36:08;11.90;;;3.03;;
57989;SDS011;58373;51.824;5.564;2022-08-03T10:38:36;10.77;;;2.80;;
57989;SDS011;58373;51.824;5.564;2022-08-03T10:41:05;15.60;;;3.10;;
57989;SDS011;58373;51.824;5.564;2022-08-03T10:43:35;11.68;;;2.95;;
57989;SDS011;58373;51.824;5.564;2022-08-03T10:46:06;13.52;;;2.83;;
57989;SDS011;58373;51.824;5.564;2022-08-03T10:48:32;12.32;;;3.03;;
57989;SDS011;58373;51.824;5.564;2022-08-03T10:50:59;10.00;;;2.40;;
57989;SDS011;58373;51.824;5.564;2022-08-03T10:53:42;12.70;;;3.08;;
57989;SDS011;58373;51.824;5.564;2022-08-03T10:56:50;8.77;;;2.30;;
57989;SDS011;58373;51.824;5.564;2022-08-03T10:59:15;13.38;;;2.70;;
57989;SDS011;58373;51.824;5.564;2022-08-03T11:01:48;10.88;;;2.90;;
57989;SDS011;58373;51.824;5.564;2022-08-03T11:04:19;13.00;;;2.72;;
57989;SDS011;58373;51.824;5.564;2022-08-03T11:06:47;10.98;;;2.58;;
57989;SDS011;58373;51.824;5.564;2022-08-03T11:09:50;9.57;;;2.35;;
57989;SDS011;58373;51.824;5.564;2022-08-03T11:14:53;11.88;;;2.70;;
57989;SDS011;58373;51.824;5.564;2022-08-03T11:17:19;9.50;;;2.88;;
57989;SDS011;58373;51.824;5.564;2022-08-03T11:19:46;12.55;;;2.50;;
57989;SDS011;58373;51.824;5.564;2022-08-03T11:22:15;14.50;;;2.95;;
57989;SDS011;58373;51.824;5.564;2022-08-03T11:35:17;9.80;;;2.55;;
57989;SDS011;58373;51.824;5.564;2022-08-03T11:46:08;11.70;;;2.95;;
57989;SDS011;58373;51.824;5.564;2022-08-03T11:48:41;13.00;;;2.97;;
57989;SDS011;58373;51.824;5.564;2022-08-03T11:51:21;11.38;;;2.38;;
57989;SDS011;58373;51.824;5.564;2022-08-03T11:53:57;12.07;;;2.45;;
57989;SDS011;58373;51.824;5.564;2022-08-03T11:56:25;14.05;;;2.65;;
57989;SDS011;58373;51.824;5.564;2022-08-03T11:58:52;11.23;;;2.35;;
57989;SDS011;58373;51.824;5.564;2022-08-03T12:01:20;11.07;;;2.45;;
57989;SDS011;58373;51.824;5.564;2022-08-03T12:03:46;11.40;;;2.80;;
57989;SDS011;58373;51.824;5.564;2022-08-03T12:06:13;11.35;;;2.42;;
57989;SDS011;58373;51.824;5.564;2022-08-03T12:08:40;11.80;;;2.70;;
57989;SDS011;58373;51.824;5.564;2022-08-03T12:11:09;9.18;;;2.20;;
57989;SDS011;58373;51.824;5.564;2022-08-03T12:13:47;8.35;;;2.10;;
57989;SDS011;58373;51.824;5.564;2022-08-03T12:16:21;11.00;;;2.53;;
57989;SDS011;58373;51.824;5.564;2022-08-03T12:18:57;12.05;;;2.42;;
57989;SDS011;58373;51.824;5.564;2022-08-03T12:21:24;12.95;;;2.58;;
57989;SDS011;58373;51.824;5.564;2022-08-03T12:23:50;8.65;;;2.22;;
57989;SDS011;58373;51.824;5.564;2022-08-03T12:26:20;10.55;;;2.40;;
57989;SDS011;58373;51.824;5.564;2022-08-03T12:28:48;7.00;;;1.98;;
57989;SDS011;58373;51.824;5.564;2022-08-03T12:31:14;10.93;;;2.20;;
57989;SDS011;58373;51.824;5.564;2022-08-03T12:36:23;7.20;;;2.00;;
57989;SDS011;58373;51.824;5.564;2022-08-03T12:38:56;7.85;;;1.73;;
57989;SDS011;58373;51.824;5.564;2022-08-03T12:41:26;8.52;;;2.40;;
57989;SDS011;58373;51.824;5.564;2022-08-03T12:43:54;5.75;;;1.67;;
57989;SDS011;58373;51.824;5.564;2022-08-03T12:46:19;6.63;;;2.00;;
57989;SDS011;58373;51.824;5.564;2022-08-03T12:51:23;8.73;;;2.17;;
57989;SDS011;58373;51.824;5.564;2022-08-03T12:53:54;7.70;;;1.90;;
57989;SDS011;58373;51.824;5.564;2022-08-03T12:56:21;7.85;;;1.85;;
57989;SDS011;58373;51.824;5.564;2022-08-03T12:58:46;8.43;;;1.98;;
57989;SDS011;58373;51.824;5.564;2022-08-03T13:01:12;7.05;;;1.83;;
57989;SDS011;58373;51.824;5.564;2022-08-03T13:03:45;9.85;;;1.90;;
57989;SDS011;58373;51.824;5.564;2022-08-03T13:06:15;5.55;;;1.67;;
57989;SDS011;58373;51.824;5.564;2022-08-03T13:08:42;7.07;;;2.03;;
57989;SDS011;58373;51.824;5.564;2022-08-03T13:11:18;6.80;;;1.67;;
57989;SDS011;58373;51.824;5.564;2022-08-03T13:13:44;5.78;;;1.60;;
57989;SDS011;58373;51.824;5.564;2022-08-03T13:16:10;7.00;;;1.88;;
57989;SDS011;58373;51.824;5.564;2022-08-03T13:18:35;6.20;;;1.63;;
57989;SDS011;58373;51.824;5.564;2022-08-03T13:21:00;5.43;;;1.52;;
57989;SDS011;58373;51.824;5.564;2022-08-03T13:23:26;6.00;;;1.80;;
57989;SDS011;58373;51.824;5.564;2022-08-03T13:25:52;5.13;;;1.80;;
57989;SDS011;58373;51.824;5.564;2022-08-03T13:28:18;7.07;;;1.92;;
57989;SDS011;58373;51.824;5.564;2022-08-03T13:30:43;5.78;;;1.75;;
57989;SDS011;58373;51.824;5.564;2022-08-03T13:33:08;6.03;;;1.90;;
57989;SDS011;58373;51.824;5.564;2022-08-03T13:35:34;6.65;;;2.00;;
57989;SDS011;58373;51.824;5.564;2022-08-03T13:37:59;5.80;;;1.80;;
57989;SDS011;58373;51.824;5.564;2022-08-03T13:40:24;7.50;;;1.60;;
57989;SDS011;58373;51.824;5.564;2022-08-03T13:42:50;6.45;;;1.77;;
57989;SDS011;58373;51.824;5.564;2022-08-03T13:45:15;5.22;;;2.00;;
57989;SDS011;58373;51.824;5.564;2022-08-03T13:47:41;7.10;;;2.05;;
57989;SDS011;58373;51.824;5.564;2022-08-03T13:50:06;7.25;;;1.90;;
57989;SDS011;58373;51.824;5.564;2022-08-03T13:52:32;6.00;;;1.80;;
57989;SDS011;58373;51.824;5.564;2022-08-03T13:54:59;7.47;;;1.70;;
57989;SDS011;58373;51.824;5.564;2022-08-03T13:57:26;6.10;;;1.80;;
57989;SDS011;58373;51.824;5.564;2022-08-03T13:59:52;6.03;;;2.00;;
57989;SDS011;58373;51.824;5.564;2022-08-03T14:02:17;8.30;;;2.00;;
57989;SDS011;58373;51.824;5.564;2022-08-03T14:04:42;6.20;;;2.22;;
57989;SDS011;58373;51.824;5.564;2022-08-03T14:07:08;6.93;;;2.00;;
57989;SDS011;58373;51.824;5.564;2022-08-03T14:09:33;5.32;;;1.90;;
57989;SDS011;58373;51.824;5.564;2022-08-03T14:11:59;6.05;;;1.85;;
57989;SDS011;58373;51.824;5.564;2022-08-03T14:14:24;6.50;;;1.90;;
57989;SDS011;58373;51.824;5.564;2022-08-03T14:16:49;6.63;;;1.70;;
57989;SDS011;58373;51.824;5.564;2022-08-03T14:19:15;10.18;;;1.90;;
57989;SDS011;58373;51.824;5.564;2022-08-03T14:21:40;6.93;;;1.90;;
57989;SDS011;58373;51.824;5.564;2022-08-03T14:24:06;6.30;;;1.80;;
57989;SDS011;58373;51.824;5.564;2022-08-03T14:26:31;7.47;;;2.15;;
57989;SDS011;58373;51.824;5.564;2022-08-03T14:28:57;7.93;;;1.98;;
57989;SDS011;58373;51.824;5.564;2022-08-03T14:31:22;8.02;;;2.00;;
57989;SDS011;58373;51.824;5.564;2022-08-03T14:33:48;8.52;;;2.00;;
57989;SDS011;58373;51.824;5.564;2022-08-03T14:36:13;8.05;;;2.00;;
57989;SDS011;58373;51.824;5.564;2022-08-03T14:38:38;6.43;;;2.15;;
57989;SDS011;58373;51.824;5.564;2022-08-03T14:41:04;6.85;;;1.90;;
57989;SDS011;58373;51.824;5.564;2022-08-03T14:43:29;9.02;;;2.10;;
57989;SDS011;58373;51.824;5.564;2022-08-03T14:45:54;6.65;;;1.90;;
57989;SDS011;58373;51.824;5.564;2022-08-03T14:48:20;8.10;;;2.10;;
57989;SDS011;58373;51.824;5.564;2022-08-03T14:50:47;6.70;;;2.13;;
57989;SDS011;58373;51.824;5.564;2022-08-03T14:53:12;5.97;;;1.75;;
57989;SDS011;58373;51.824;5.564;2022-08-03T14:55:38;6.18;;;2.03;;
57989;SDS011;58373;51.824;5.564;2022-08-03T14:58:03;9.05;;;2.20;;
57989;SDS011;58373;51.824;5.564;2022-08-03T15:00:31;8.60;;;2.03;;
57989;SDS011;58373;51.824;5.564;2022-08-03T15:02:57;8.73;;;2.20;;
57989;SDS011;58373;51.824;5.564;2022-08-03T15:05:23;5.80;;;1.88;;
57989;SDS011;58373;51.824;5.564;2022-08-03T15:07:48;7.70;;;2.00;;
57989;SDS011;58373;51.824;5.564;2022-08-03T15:10:13;7.10;;;1.92;;
57989;SDS011;58373;51.824;5.564;2022-08-03T15:12:39;8.32;;;2.13;;
57989;SDS011;58373;51.824;5.564;2022-08-03T15:15:05;7.22;;;1.98;;
57989;SDS011;58373;51.824;5.564;2022-08-03T15:17:31;7.40;;;2.00;;
57989;SDS011;58373;51.824;5.564;2022-08-03T15:19:56;6.43;;;1.85;;
57989;SDS011;58373;51.824;5.564;2022-08-03T15:22:22;7.32;;;2.25;;
57989;SDS011;58373;51.824;5.564;2022-08-03T15:24:47;6.20;;;1.70;;
57989;SDS011;58373;51.824;5.564;2022-08-03T15:27:12;6.70;;;2.53;;
57989;SDS011;58373;51.824;5.564;2022-08-03T15:29:38;7.25;;;2.00;;
57989;SDS011;58373;51.824;5.564;2022-08-03T15:32:03;6.47;;;1.92;;